sensor_id;sensor_type;location;lat;lon;timestamp;P1;durP1;ratioP1;P2;durP2;ratioP2
59468;SDS011;45277;52.768;18.262;2023-08-21T00:01:31;15.27;;;13.23;;
59468;SDS011;45277;52.768;18.262;2023-08-21T00:03:02;17.02;;;13.25;;
59468;SDS011;45277;52.768;18.262;2023-08-21T00:04:34;14.48;;;11.50;;
59468;SDS011;45277;52.768;18.262;2023-08-21T00:06:05;17.17;;;12.52;;
59468;SDS011;45277;52.768;18.262;2023-08-21T00:07:37;13.02;;;11.05;;
59468;SDS011;45277;52.768;18.262;2023-08-21T00:09:08;17.10;;;12.63;;
59468;SDS011;45277;52.768;18.262;2023-08-21T00:10:39;15.35;;;12.02;;
59468;SDS011;45277;52.768;18.262;2023-08-21T00:12:11;15.90;;;11.98;;
59468;SDS011;45277;52.768;18.262;2023-08-21T00:13:43;15.65;;;12.65;;
59468;SDS011;45277;52.768;18.262;2023-08-21T00:15:15;13.93;;;11.68;;
59468;SDS011;45277;52.768;18.262;2023-08-21T00:16:46;14.15;;;11.57;;
59468;SDS011;45277;52.768;18.262;2023-08-21T00:18:18;13.85;;;12.32;;
59468;SDS011;45277;52.768;18.262;2023-08-21T00:19:49;15.15;;;12.93;;
59468;SDS011;45277;52.768;18.262;2023-08-21T00:21:21;16.33;;;11.82;;
59468;SDS011;45277;52.768;18.262;2023-08-21T00:22:52;14.52;;;11.82;;
59468;SDS011;45277;52.768;18.262;2023-08-21T00:24:23;15.20;;;12.15;;
59468;SDS011;45277;52.768;18.262;2023-08-21T00:25:55;16.15;;;12.05;;
59468;SDS011;45277;52.768;18.262;2023-08-21T00:27:26;14.90;;;12.25;;
59468;SDS011;45277;52.768;18.262;2023-08-21T00:28:57;14.23;;;12.02;;
59468;SDS011;45277;52.768;18.262;2023-08-21T00:30:29;14.57;;;11.32;;
59468;SDS011;45277;52.768;18.262;2023-08-21T00:32:00;14.70;;;11.25;;
59468;SDS011;45277;52.768;18.262;2023-08-21T00:33:31;14.00;;;11.27;;
59468;SDS011;45277;52.768;18.262;2023-08-21T00:35:04;15.90;;;12.35;;
59468;SDS011;45277;52.768;18.262;2023-08-21T00:36:35;13.90;;;11.23;;
59468;SDS011;45277;52.768;18.262;2023-08-21T00:38:06;14.70;;;12.23;;
59468;SDS011;45277;52.768;18.262;2023-08-21T00:39:38;15.65;;;11.73;;
59468;SDS011;45277;52.768;18.262;2023-08-21T00:41:09;15.13;;;12.27;;
59468;SDS011;45277;52.768;18.262;2023-08-21T00:42:40;14.55;;;11.40;;
59468;SDS011;45277;52.768;18.262;2023-08-21T00:44:12;14.75;;;10.70;;
59468;SDS011;45277;52.768;18.262;2023-08-21T00:45:44;15.45;;;11.93;;
59468;SDS011;45277;52.768;18.262;2023-08-21T00:47:16;14.57;;;11.88;;
59468;SDS011;45277;52.768;18.262;2023-08-21T00:48:48;13.82;;;10.73;;
59468;SDS011;45277;52.768;18.262;2023-08-21T00:50:19;14.02;;;11.00;;
59468;SDS011;45277;52.768;18.262;2023-08-21T00:51:50;15.60;;;12.23;;
59468;SDS011;45277;52.768;18.262;2023-08-21T00:53:23;15.88;;;12.38;;
59468;SDS011;45277;52.768;18.262;2023-08-21T00:54:55;13.95;;;11.02;;
59468;SDS011;45277;52.768;18.262;2023-08-21T00:56:27;15.88;;;12.07;;
59468;SDS011;45277;52.768;18.262;2023-08-21T00:57:59;15.27;;;12.50;;
59468;SDS011;45277;52.768;18.262;2023-08-21T00:59:34;15.25;;;12.63;;
59468;SDS011;45277;52.768;18.262;2023-08-21T01:01:05;15.90;;;11.85;;
59468;SDS011;45277;52.768;18.262;2023-08-21T01:02:37;16.48;;;13.10;;
59468;SDS011;45277;52.768;18.262;2023-08-21T01:04:08;15.70;;;12.10;;
59468;SDS011;45277;52.768;18.262;2023-08-21T01:05:40;16.63;;;12.48;;
59468;SDS011;45277;52.768;18.262;2023-08-21T01:07:11;17.33;;;12.48;;
59468;SDS011;45277;52.768;18.262;2023-08-21T01:12:25;17.90;;;12.48;;
59468;SDS011;45277;52.768;18.262;2023-08-21T01:14:06;15.43;;;11.23;;
59468;SDS011;45277;52.768;18.262;2023-08-21T01:15:47;18.35;;;12.63;;
59468;SDS011;45277;52.768;18.262;2023-08-21T01:17:22;17.10;;;11.38;;
59468;SDS011;45277;52.768;18.262;2023-08-21T01:18:54;15.38;;;12.40;;
59468;SDS011;45277;52.768;18.262;2023-08-21T01:20:27;15.45;;;11.07;;
59468;SDS011;45277;52.768;18.262;2023-08-21T01:21:59;15.20;;;10.50;;
59468;SDS011;45277;52.768;18.262;2023-08-21T01:25:06;13.07;;;10.65;;
59468;SDS011;45277;52.768;18.262;2023-08-21T01:26:39;14.10;;;10.60;;
59468;SDS011;45277;52.768;18.262;2023-08-21T01:28:11;14.73;;;10.80;;
59468;SDS011;45277;52.768;18.262;2023-08-21T01:29:42;13.70;;;11.10;;
59468;SDS011;45277;52.768;18.262;2023-08-21T01:31:20;14.15;;;11.30;;
59468;SDS011;45277;52.768;18.262;2023-08-21T01:33:01;15.38;;;10.57;;
59468;SDS011;45277;52.768;18.262;2023-08-21T01:34:41;13.93;;;10.98;;
59468;SDS011;45277;52.768;18.262;2023-08-21T01:36:14;15.50;;;11.60;;
59468;SDS011;45277;52.768;18.262;2023-08-21T01:37:45;13.60;;;10.50;;
59468;SDS011;45277;52.768;18.262;2023-08-21T01:39:17;14.23;;;10.90;;
59468;SDS011;45277;52.768;18.262;2023-08-21T01:40:49;14.25;;;10.55;;
59468;SDS011;45277;52.768;18.262;2023-08-21T01:42:20;16.50;;;10.95;;
59468;SDS011;45277;52.768;18.262;2023-08-21T01:43:52;13.70;;;10.32;;
59468;SDS011;45277;52.768;18.262;2023-08-21T01:45:23;16.38;;;11.35;;
59468;SDS011;45277;52.768;18.262;2023-08-21T01:46:55;14.05;;;11.93;;
59468;SDS011;45277;52.768;18.262;2023-08-21T01:48:26;15.32;;;11.13;;
59468;SDS011;45277;52.768;18.262;2023-08-21T01:49:58;14.52;;;11.43;;
59468;SDS011;45277;52.768;18.262;2023-08-21T01:51:29;16.08;;;11.13;;
59468;SDS011;45277;52.768;18.262;2023-08-21T01:53:00;16.77;;;11.52;;
59468;SDS011;45277;52.768;18.262;2023-08-21T01:54:32;14.65;;;11.32;;
59468;SDS011;45277;52.768;18.262;2023-08-21T01:56:03;16.92;;;11.93;;
59468;SDS011;45277;52.768;18.262;2023-08-21T01:57:34;16.52;;;11.75;;
59468;SDS011;45277;52.768;18.262;2023-08-21T01:59:06;15.73;;;10.88;;
59468;SDS011;45277;52.768;18.262;2023-08-21T02:00:37;16.15;;;10.43;;
59468;SDS011;45277;52.768;18.262;2023-08-21T02:02:09;13.57;;;10.50;;
59468;SDS011;45277;52.768;18.262;2023-08-21T02:03:40;17.17;;;11.07;;
59468;SDS011;45277;52.768;18.262;2023-08-21T02:05:12;13.95;;;10.82;;
59468;SDS011;45277;52.768;18.262;2023-08-21T02:06:43;15.70;;;11.43;;
59468;SDS011;45277;52.768;18.262;2023-08-21T02:08:15;13.80;;;10.35;;
59468;SDS011;45277;52.768;18.262;2023-08-21T02:09:47;13.48;;;10.30;;
59468;SDS011;45277;52.768;18.262;2023-08-21T02:11:18;15.65;;;11.20;;
59468;SDS011;45277;52.768;18.262;2023-08-21T02:12:50;11.63;;;9.80;;
59468;SDS011;45277;52.768;18.262;2023-08-21T02:14:22;14.02;;;10.57;;
59468;SDS011;45277;52.768;18.262;2023-08-21T02:15:53;13.32;;;10.15;;
59468;SDS011;45277;52.768;18.262;2023-08-21T02:17:28;12.07;;;9.27;;
59468;SDS011;45277;52.768;18.262;2023-08-21T02:19:00;13.40;;;9.55;;
59468;SDS011;45277;52.768;18.262;2023-08-21T02:20:31;11.43;;;9.82;;
59468;SDS011;45277;52.768;18.262;2023-08-21T02:22:03;13.85;;;10.40;;
59468;SDS011;45277;52.768;18.262;2023-08-21T02:23:34;12.60;;;9.90;;
59468;SDS011;45277;52.768;18.262;2023-08-21T02:25:05;12.23;;;9.80;;
59468;SDS011;45277;52.768;18.262;2023-08-21T02:26:37;14.35;;;10.15;;
59468;SDS011;45277;52.768;18.262;2023-08-21T02:28:08;11.35;;;9.70;;
59468;SDS011;45277;52.768;18.262;2023-08-21T02:29:39;14.20;;;9.93;;
59468;SDS011;45277;52.768;18.262;2023-08-21T02:31:11;11.88;;;9.10;;
59468;SDS011;45277;52.768;18.262;2023-08-21T02:32:42;15.30;;;9.25;;
59468;SDS011;45277;52.768;18.262;2023-08-21T02:34:14;12.85;;;9.30;;
59468;SDS011;45277;52.768;18.262;2023-08-21T02:35:46;12.65;;;10.32;;
59468;SDS011;45277;52.768;18.262;2023-08-21T02:37:17;11.57;;;9.35;;
59468;SDS011;45277;52.768;18.262;2023-08-21T02:38:49;12.05;;;9.15;;
59468;SDS011;45277;52.768;18.262;2023-08-21T02:40:21;11.32;;;9.23;;
59468;SDS011;45277;52.768;18.262;2023-08-21T02:41:52;12.25;;;9.48;;
59468;SDS011;45277;52.768;18.262;2023-08-21T02:43:23;12.00;;;8.88;;
59468;SDS011;45277;52.768;18.262;2023-08-21T02:44:55;13.50;;;9.30;;
59468;SDS011;45277;52.768;18.262;2023-08-21T02:46:26;14.77;;;10.18;;
59468;SDS011;45277;52.768;18.262;2023-08-21T02:47:57;15.05;;;10.05;;
59468;SDS011;45277;52.768;18.262;2023-08-21T02:49:29;16.27;;;10.73;;
59468;SDS011;45277;52.768;18.262;2023-08-21T02:51:00;16.52;;;9.88;;
59468;SDS011;45277;52.768;18.262;2023-08-21T02:52:33;13.00;;;10.63;;
59468;SDS011;45277;52.768;18.262;2023-08-21T02:54:05;13.82;;;10.18;;
59468;SDS011;45277;52.768;18.262;2023-08-21T02:55:36;15.50;;;11.32;;
59468;SDS011;45277;52.768;18.262;2023-08-21T02:57:08;17.52;;;10.57;;
59468;SDS011;45277;52.768;18.262;2023-08-21T02:58:39;12.45;;;10.25;;
59468;SDS011;45277;52.768;18.262;2023-08-21T03:00:11;13.85;;;10.35;;
59468;SDS011;45277;52.768;18.262;2023-08-21T03:01:42;12.98;;;10.73;;
59468;SDS011;45277;52.768;18.262;2023-08-21T03:03:14;16.20;;;11.20;;
59468;SDS011;45277;52.768;18.262;2023-08-21T03:04:45;15.65;;;10.38;;
59468;SDS011;45277;52.768;18.262;2023-08-21T03:06:16;14.75;;;10.80;;
59468;SDS011;45277;52.768;18.262;2023-08-21T03:07:48;15.52;;;11.25;;
59468;SDS011;45277;52.768;18.262;2023-08-21T03:09:19;14.65;;;11.65;;
59468;SDS011;45277;52.768;18.262;2023-08-21T03:10:50;13.50;;;10.18;;
59468;SDS011;45277;52.768;18.262;2023-08-21T03:12:22;14.85;;;11.38;;
59468;SDS011;45277;52.768;18.262;2023-08-21T03:13:53;14.15;;;10.60;;
59468;SDS011;45277;52.768;18.262;2023-08-21T03:15:25;15.88;;;10.93;;
59468;SDS011;45277;52.768;18.262;2023-08-21T03:16:56;15.73;;;11.05;;
59468;SDS011;45277;52.768;18.262;2023-08-21T03:18:30;16.60;;;11.75;;
59468;SDS011;45277;52.768;18.262;2023-08-21T03:20:02;15.95;;;11.25;;
59468;SDS011;45277;52.768;18.262;2023-08-21T03:21:37;20.50;;;11.40;;
59468;SDS011;45277;52.768;18.262;2023-08-21T03:23:08;17.80;;;11.93;;
59468;SDS011;45277;52.768;18.262;2023-08-21T03:24:39;20.00;;;11.48;;
59468;SDS011;45277;52.768;18.262;2023-08-21T03:26:11;14.40;;;11.23;;
59468;SDS011;45277;52.768;18.262;2023-08-21T03:27:42;17.85;;;10.73;;
59468;SDS011;45277;52.768;18.262;2023-08-21T03:29:14;18.20;;;11.98;;
59468;SDS011;45277;52.768;18.262;2023-08-21T03:30:46;17.48;;;11.00;;
59468;SDS011;45277;52.768;18.262;2023-08-21T03:32:17;17.88;;;11.38;;
59468;SDS011;45277;52.768;18.262;2023-08-21T03:33:49;17.98;;;11.75;;
59468;SDS011;45277;52.768;18.262;2023-08-21T03:35:20;16.80;;;11.93;;
59468;SDS011;45277;52.768;18.262;2023-08-21T03:36:52;15.38;;;10.00;;
59468;SDS011;45277;52.768;18.262;2023-08-21T03:38:23;15.77;;;10.93;;
59468;SDS011;45277;52.768;18.262;2023-08-21T03:39:55;16.58;;;11.50;;
59468;SDS011;45277;52.768;18.262;2023-08-21T03:41:26;14.68;;;10.32;;
59468;SDS011;45277;52.768;18.262;2023-08-21T03:42:58;14.88;;;10.02;;
59468;SDS011;45277;52.768;18.262;2023-08-21T03:44:29;14.95;;;10.18;;
59468;SDS011;45277;52.768;18.262;2023-08-21T03:46:01;15.25;;;10.60;;
59468;SDS011;45277;52.768;18.262;2023-08-21T03:47:32;15.55;;;9.75;;
59468;SDS011;45277;52.768;18.262;2023-08-21T03:49:04;14.93;;;10.13;;
59468;SDS011;45277;52.768;18.262;2023-08-21T03:50:35;15.00;;;10.38;;
59468;SDS011;45277;52.768;18.262;2023-08-21T03:52:07;15.27;;;10.65;;
59468;SDS011;45277;52.768;18.262;2023-08-21T03:53:38;13.88;;;9.38;;
59468;SDS011;45277;52.768;18.262;2023-08-21T03:55:09;17.73;;;10.52;;
59468;SDS011;45277;52.768;18.262;2023-08-21T03:56:41;13.18;;;9.40;;
59468;SDS011;45277;52.768;18.262;2023-08-21T03:58:13;14.77;;;10.15;;
59468;SDS011;45277;52.768;18.262;2023-08-21T03:59:45;15.63;;;10.07;;
59468;SDS011;45277;52.768;18.262;2023-08-21T04:01:16;13.68;;;8.30;;
59468;SDS011;45277;52.768;18.262;2023-08-21T04:02:48;14.80;;;9.27;;
59468;SDS011;45277;52.768;18.262;2023-08-21T04:04:19;13.52;;;8.93;;
59468;SDS011;45277;52.768;18.262;2023-08-21T04:05:50;11.30;;;8.48;;
59468;SDS011;45277;52.768;18.262;2023-08-21T04:07:24;11.80;;;7.80;;
59468;SDS011;45277;52.768;18.262;2023-08-21T04:08:55;10.85;;;7.85;;
59468;SDS011;45277;52.768;18.262;2023-08-21T04:10:27;14.68;;;8.82;;
59468;SDS011;45277;52.768;18.262;2023-08-21T04:11:58;12.57;;;8.18;;
59468;SDS011;45277;52.768;18.262;2023-08-21T04:13:29;12.30;;;8.73;;
59468;SDS011;45277;52.768;18.262;2023-08-21T04:15:01;12.85;;;8.75;;
59468;SDS011;45277;52.768;18.262;2023-08-21T04:16:32;11.13;;;8.40;;
59468;SDS011;45277;52.768;18.262;2023-08-21T04:18:04;12.00;;;8.45;;
59468;SDS011;45277;52.768;18.262;2023-08-21T04:19:35;11.00;;;7.90;;
59468;SDS011;45277;52.768;18.262;2023-08-21T04:21:07;12.10;;;8.02;;
59468;SDS011;45277;52.768;18.262;2023-08-21T04:22:39;11.02;;;7.85;;
59468;SDS011;45277;52.768;18.262;2023-08-21T04:24:10;14.57;;;8.82;;
59468;SDS011;45277;52.768;18.262;2023-08-21T04:25:42;10.77;;;7.90;;
59468;SDS011;45277;52.768;18.262;2023-08-21T04:27:13;9.63;;;7.68;;
59468;SDS011;45277;52.768;18.262;2023-08-21T04:28:46;9.90;;;7.68;;
59468;SDS011;45277;52.768;18.262;2023-08-21T04:30:18;11.65;;;7.72;;
59468;SDS011;45277;52.768;18.262;2023-08-21T04:31:49;9.77;;;7.95;;
59468;SDS011;45277;52.768;18.262;2023-08-21T04:33:20;11.68;;;7.97;;
59468;SDS011;45277;52.768;18.262;2023-08-21T04:34:52;10.43;;;7.82;;
59468;SDS011;45277;52.768;18.262;2023-08-21T04:36:23;11.43;;;7.80;;
59468;SDS011;45277;52.768;18.262;2023-08-21T04:37:55;11.15;;;7.60;;
59468;SDS011;45277;52.768;18.262;2023-08-21T04:39:26;10.85;;;7.40;;
59468;SDS011;45277;52.768;18.262;2023-08-21T04:41:06;11.32;;;8.23;;
59468;SDS011;45277;52.768;18.262;2023-08-21T04:42:38;10.88;;;6.72;;
59468;SDS011;45277;52.768;18.262;2023-08-21T04:44:10;10.15;;;6.90;;
59468;SDS011;45277;52.768;18.262;2023-08-21T04:45:51;9.93;;;6.78;;
59468;SDS011;45277;52.768;18.262;2023-08-21T04:47:25;11.00;;;6.90;;
59468;SDS011;45277;52.768;18.262;2023-08-21T04:48:58;11.13;;;7.20;;
59468;SDS011;45277;52.768;18.262;2023-08-21T04:50:29;10.15;;;6.95;;
59468;SDS011;45277;52.768;18.262;2023-08-21T04:52:00;10.63;;;6.82;;
59468;SDS011;45277;52.768;18.262;2023-08-21T04:53:32;9.13;;;6.05;;
59468;SDS011;45277;52.768;18.262;2023-08-21T04:55:03;8.68;;;6.20;;
59468;SDS011;45277;52.768;18.262;2023-08-21T04:56:36;10.13;;;6.70;;
59468;SDS011;45277;52.768;18.262;2023-08-21T04:58:08;11.77;;;6.78;;
59468;SDS011;45277;52.768;18.262;2023-08-21T04:59:40;8.63;;;6.28;;
59468;SDS011;45277;52.768;18.262;2023-08-21T05:01:12;8.68;;;5.63;;
59468;SDS011;45277;52.768;18.262;2023-08-21T05:02:44;8.77;;;5.75;;
59468;SDS011;45277;52.768;18.262;2023-08-21T05:04:15;7.47;;;5.63;;
59468;SDS011;45277;52.768;18.262;2023-08-21T05:05:53;13.50;;;6.28;;
59468;SDS011;45277;52.768;18.262;2023-08-21T05:07:25;10.40;;;7.05;;
59468;SDS011;45277;52.768;18.262;2023-08-21T05:08:57;10.52;;;5.90;;
59468;SDS011;45277;52.768;18.262;2023-08-21T05:10:28;10.07;;;6.13;;
59468;SDS011;45277;52.768;18.262;2023-08-21T05:12:00;9.68;;;6.30;;
59468;SDS011;45277;52.768;18.262;2023-08-21T05:13:31;9.50;;;5.53;;
59468;SDS011;45277;52.768;18.262;2023-08-21T05:15:03;8.60;;;5.53;;
59468;SDS011;45277;52.768;18.262;2023-08-21T05:16:35;11.77;;;5.63;;
59468;SDS011;45277;52.768;18.262;2023-08-21T05:18:06;10.30;;;5.75;;
59468;SDS011;45277;52.768;18.262;2023-08-21T05:19:37;6.90;;;4.68;;
59468;SDS011;45277;52.768;18.262;2023-08-21T05:21:09;11.50;;;5.90;;
59468;SDS011;45277;52.768;18.262;2023-08-21T05:22:40;8.00;;;5.40;;
59468;SDS011;45277;52.768;18.262;2023-08-21T05:24:12;7.97;;;5.70;;
59468;SDS011;45277;52.768;18.262;2023-08-21T05:25:44;7.13;;;5.45;;
59468;SDS011;45277;52.768;18.262;2023-08-21T05:27:16;11.07;;;5.15;;
59468;SDS011;45277;52.768;18.262;2023-08-21T05:28:47;7.22;;;5.82;;
59468;SDS011;45277;52.768;18.262;2023-08-21T05:30:19;6.85;;;5.28;;
59468;SDS011;45277;52.768;18.262;2023-08-21T05:31:50;6.93;;;4.93;;
59468;SDS011;45277;52.768;18.262;2023-08-21T05:33:21;8.32;;;5.07;;
59468;SDS011;45277;52.768;18.262;2023-08-21T05:34:53;9.52;;;5.45;;
59468;SDS011;45277;52.768;18.262;2023-08-21T05:36:24;7.63;;;5.07;;
59468;SDS011;45277;52.768;18.262;2023-08-21T05:37:55;8.10;;;5.57;;
59468;SDS011;45277;52.768;18.262;2023-08-21T05:39:27;8.20;;;5.35;;
59468;SDS011;45277;52.768;18.262;2023-08-21T05:40:59;10.85;;;5.43;;
59468;SDS011;45277;52.768;18.262;2023-08-21T05:42:31;8.13;;;4.75;;
59468;SDS011;45277;52.768;18.262;2023-08-21T05:44:03;9.43;;;5.43;;
59468;SDS011;45277;52.768;18.262;2023-08-21T05:45:35;8.65;;;4.50;;
59468;SDS011;45277;52.768;18.262;2023-08-21T05:47:06;9.00;;;4.68;;
59468;SDS011;45277;52.768;18.262;2023-08-21T05:48:38;7.47;;;4.65;;
59468;SDS011;45277;52.768;18.262;2023-08-21T05:50:09;8.13;;;5.50;;
59468;SDS011;45277;52.768;18.262;2023-08-21T05:51:41;5.35;;;4.18;;
59468;SDS011;45277;52.768;18.262;2023-08-21T05:53:12;6.18;;;4.30;;
59468;SDS011;45277;52.768;18.262;2023-08-21T05:54:44;8.43;;;4.78;;
59468;SDS011;45277;52.768;18.262;2023-08-21T05:56:15;7.13;;;4.25;;
59468;SDS011;45277;52.768;18.262;2023-08-21T05:57:46;7.72;;;4.55;;
59468;SDS011;45277;52.768;18.262;2023-08-21T05:59:27;6.85;;;4.03;;
59468;SDS011;45277;52.768;18.262;2023-08-21T06:01:02;7.32;;;4.50;;
59468;SDS011;45277;52.768;18.262;2023-08-21T06:02:33;9.25;;;4.97;;
59468;SDS011;45277;52.768;18.262;2023-08-21T06:04:05;5.63;;;4.15;;
59468;SDS011;45277;52.768;18.262;2023-08-21T06:05:36;8.10;;;4.57;;
59468;SDS011;45277;52.768;18.262;2023-08-21T06:07:08;4.95;;;4.20;;
59468;SDS011;45277;52.768;18.262;2023-08-21T06:08:40;5.85;;;4.20;;
59468;SDS011;45277;52.768;18.262;2023-08-21T06:10:11;5.13;;;3.85;;
59468;SDS011;45277;52.768;18.262;2023-08-21T06:11:43;8.10;;;4.35;;
59468;SDS011;45277;52.768;18.262;2023-08-21T06:13:14;10.23;;;4.30;;
59468;SDS011;45277;52.768;18.262;2023-08-21T06:14:46;9.98;;;4.20;;
59468;SDS011;45277;52.768;18.262;2023-08-21T06:16:17;7.80;;;4.40;;
59468;SDS011;45277;52.768;18.262;2023-08-21T06:17:48;7.57;;;4.18;;
59468;SDS011;45277;52.768;18.262;2023-08-21T06:19:20;7.32;;;4.35;;
59468;SDS011;45277;52.768;18.262;2023-08-21T06:20:52;4.57;;;3.78;;
59468;SDS011;45277;52.768;18.262;2023-08-21T06:22:25;7.78;;;4.47;;
59468;SDS011;45277;52.768;18.262;2023-08-21T06:23:56;5.10;;;3.55;;
59468;SDS011;45277;52.768;18.262;2023-08-21T06:25:28;6.60;;;3.97;;
59468;SDS011;45277;52.768;18.262;2023-08-21T06:27:01;4.78;;;3.63;;
59468;SDS011;45277;52.768;18.262;2023-08-21T06:28:33;4.90;;;3.67;;
59468;SDS011;45277;52.768;18.262;2023-08-21T06:30:05;5.63;;;3.70;;
59468;SDS011;45277;52.768;18.262;2023-08-21T06:31:36;6.65;;;4.10;;
59468;SDS011;45277;52.768;18.262;2023-08-21T06:33:08;4.53;;;3.75;;
59468;SDS011;45277;52.768;18.262;2023-08-21T06:34:39;5.97;;;3.60;;
59468;SDS011;45277;52.768;18.262;2023-08-21T06:36:11;4.38;;;3.53;;
59468;SDS011;45277;52.768;18.262;2023-08-21T06:37:42;6.00;;;3.67;;
59468;SDS011;45277;52.768;18.262;2023-08-21T06:39:14;6.28;;;3.08;;
59468;SDS011;45277;52.768;18.262;2023-08-21T06:40:45;4.30;;;3.35;;
59468;SDS011;45277;52.768;18.262;2023-08-21T06:42:16;6.35;;;3.47;;
59468;SDS011;45277;52.768;18.262;2023-08-21T06:43:48;8.65;;;3.60;;
59468;SDS011;45277;52.768;18.262;2023-08-21T06:45:20;7.82;;;3.75;;
59468;SDS011;45277;52.768;18.262;2023-08-21T06:46:51;4.72;;;3.63;;
59468;SDS011;45277;52.768;18.262;2023-08-21T06:48:22;4.15;;;3.25;;
59468;SDS011;45277;52.768;18.262;2023-08-21T06:49:54;4.93;;;3.15;;
59468;SDS011;45277;52.768;18.262;2023-08-21T06:51:25;4.57;;;3.00;;
59468;SDS011;45277;52.768;18.262;2023-08-21T06:52:57;5.25;;;3.38;;
59468;SDS011;45277;52.768;18.262;2023-08-21T06:54:28;5.22;;;3.03;;
59468;SDS011;45277;52.768;18.262;2023-08-21T06:56:00;4.53;;;3.03;;
59468;SDS011;45277;52.768;18.262;2023-08-21T06:57:31;3.78;;;3.38;;
59468;SDS011;45277;52.768;18.262;2023-08-21T06:59:02;4.00;;;3.05;;
59468;SDS011;45277;52.768;18.262;2023-08-21T07:00:34;5.72;;;3.30;;
59468;SDS011;45277;52.768;18.262;2023-08-21T07:02:05;9.25;;;3.20;;
59468;SDS011;45277;52.768;18.262;2023-08-21T07:03:37;3.90;;;3.15;;
59468;SDS011;45277;52.768;18.262;2023-08-21T07:05:08;3.40;;;2.75;;
59468;SDS011;45277;52.768;18.262;2023-08-21T07:06:40;3.90;;;3.03;;
59468;SDS011;45277;52.768;18.262;2023-08-21T07:08:11;7.15;;;3.95;;
59468;SDS011;45277;52.768;18.262;2023-08-21T07:09:43;6.47;;;3.55;;
59468;SDS011;45277;52.768;18.262;2023-08-21T07:11:15;5.10;;;3.30;;
59468;SDS011;45277;52.768;18.262;2023-08-21T07:12:47;4.80;;;3.58;;
59468;SDS011;45277;52.768;18.262;2023-08-21T07:14:19;4.22;;;2.70;;
59468;SDS011;45277;52.768;18.262;2023-08-21T07:15:52;4.63;;;2.92;;
59468;SDS011;45277;52.768;18.262;2023-08-21T07:17:25;5.30;;;2.92;;
59468;SDS011;45277;52.768;18.262;2023-08-21T07:18:57;5.07;;;3.30;;
59468;SDS011;45277;52.768;18.262;2023-08-21T07:20:29;4.43;;;3.53;;
59468;SDS011;45277;52.768;18.262;2023-08-21T07:22:00;6.25;;;3.40;;
59468;SDS011;45277;52.768;18.262;2023-08-21T07:23:32;5.07;;;3.45;;
59468;SDS011;45277;52.768;18.262;2023-08-21T07:25:04;4.53;;;2.80;;
59468;SDS011;45277;52.768;18.262;2023-08-21T07:26:36;4.70;;;2.97;;
59468;SDS011;45277;52.768;18.262;2023-08-21T07:28:07;5.63;;;3.05;;
59468;SDS011;45277;52.768;18.262;2023-08-21T07:29:42;3.88;;;2.85;;
59468;SDS011;45277;52.768;18.262;2023-08-21T07:31:13;4.80;;;3.17;;
59468;SDS011;45277;52.768;18.262;2023-08-21T07:32:44;4.20;;;2.88;;
59468;SDS011;45277;52.768;18.262;2023-08-21T07:34:16;3.80;;;2.78;;
59468;SDS011;45277;52.768;18.262;2023-08-21T07:35:47;4.90;;;2.80;;
59468;SDS011;45277;52.768;18.262;2023-08-21T07:37:27;4.70;;;3.20;;
59468;SDS011;45277;52.768;18.262;2023-08-21T07:38:58;6.00;;;2.65;;
59468;SDS011;45277;52.768;18.262;2023-08-21T07:40:30;4.28;;;2.95;;
59468;SDS011;45277;52.768;18.262;2023-08-21T07:42:01;5.93;;;2.63;;
59468;SDS011;45277;52.768;18.262;2023-08-21T07:43:33;5.30;;;3.00;;
59468;SDS011;45277;52.768;18.262;2023-08-21T07:45:05;4.95;;;3.00;;
59468;SDS011;45277;52.768;18.262;2023-08-21T07:46:36;3.75;;;2.70;;
59468;SDS011;45277;52.768;18.262;2023-08-21T07:48:08;4.07;;;2.33;;
59468;SDS011;45277;52.768;18.262;2023-08-21T07:49:39;4.35;;;2.63;;
59468;SDS011;45277;52.768;18.262;2023-08-21T07:51:11;2.72;;;2.53;;
59468;SDS011;45277;52.768;18.262;2023-08-21T07:52:43;5.30;;;2.72;;
59468;SDS011;45277;52.768;18.262;2023-08-21T07:54:14;3.75;;;2.92;;
59468;SDS011;45277;52.768;18.262;2023-08-21T07:55:46;5.88;;;3.35;;
59468;SDS011;45277;52.768;18.262;2023-08-21T07:57:17;5.32;;;3.60;;
59468;SDS011;45277;52.768;18.262;2023-08-21T07:58:49;3.05;;;2.58;;
59468;SDS011;45277;52.768;18.262;2023-08-21T08:00:20;5.70;;;2.60;;
59468;SDS011;45277;52.768;18.262;2023-08-21T08:01:52;2.80;;;2.40;;
59468;SDS011;45277;52.768;18.262;2023-08-21T08:03:23;3.25;;;2.53;;
59468;SDS011;45277;52.768;18.262;2023-08-21T08:04:55;3.47;;;2.55;;
59468;SDS011;45277;52.768;18.262;2023-08-21T08:06:27;4.07;;;2.45;;
59468;SDS011;45277;52.768;18.262;2023-08-21T08:07:59;3.58;;;2.47;;
59468;SDS011;45277;52.768;18.262;2023-08-21T08:09:30;3.95;;;2.67;;
59468;SDS011;45277;52.768;18.262;2023-08-21T08:11:03;6.20;;;2.75;;
59468;SDS011;45277;52.768;18.262;2023-08-21T08:12:35;2.75;;;2.40;;
59468;SDS011;45277;52.768;18.262;2023-08-21T08:14:07;3.92;;;2.80;;
59468;SDS011;45277;52.768;18.262;2023-08-21T08:15:38;4.55;;;2.65;;
59468;SDS011;45277;52.768;18.262;2023-08-21T08:17:11;4.47;;;2.53;;
59468;SDS011;45277;52.768;18.262;2023-08-21T08:18:43;3.25;;;2.35;;
59468;SDS011;45277;52.768;18.262;2023-08-21T08:20:15;3.13;;;2.42;;
59468;SDS011;45277;52.768;18.262;2023-08-21T08:21:46;5.93;;;2.95;;
59468;SDS011;45277;52.768;18.262;2023-08-21T08:23:19;4.65;;;2.50;;
59468;SDS011;45277;52.768;18.262;2023-08-21T08:24:51;3.78;;;2.50;;
59468;SDS011;45277;52.768;18.262;2023-08-21T08:26:26;3.90;;;2.40;;
59468;SDS011;45277;52.768;18.262;2023-08-21T08:27:57;3.38;;;2.40;;
59468;SDS011;45277;52.768;18.262;2023-08-21T08:29:29;3.40;;;3.00;;
59468;SDS011;45277;52.768;18.262;2023-08-21T08:31:00;6.25;;;3.45;;
59468;SDS011;45277;52.768;18.262;2023-08-21T08:32:32;4.95;;;2.78;;
59468;SDS011;45277;52.768;18.262;2023-08-21T08:34:04;3.60;;;2.55;;
59468;SDS011;45277;52.768;18.262;2023-08-21T08:35:36;3.97;;;2.50;;
59468;SDS011;45277;52.768;18.262;2023-08-21T08:37:08;2.33;;;2.15;;
59468;SDS011;45277;52.768;18.262;2023-08-21T08:38:40;3.13;;;2.63;;
59468;SDS011;45277;52.768;18.262;2023-08-21T08:40:13;3.25;;;2.60;;
59468;SDS011;45277;52.768;18.262;2023-08-21T08:41:50;3.05;;;2.20;;
59468;SDS011;45277;52.768;18.262;2023-08-21T08:43:31;3.47;;;2.38;;
59468;SDS011;45277;52.768;18.262;2023-08-21T08:45:06;3.35;;;2.50;;
59468;SDS011;45277;52.768;18.262;2023-08-21T08:46:38;2.40;;;2.20;;
59468;SDS011;45277;52.768;18.262;2023-08-21T08:48:12;3.88;;;2.50;;
59468;SDS011;45277;52.768;18.262;2023-08-21T08:49:45;2.83;;;2.40;;
59468;SDS011;45277;52.768;18.262;2023-08-21T08:51:19;2.83;;;2.53;;
59468;SDS011;45277;52.768;18.262;2023-08-21T08:52:51;2.90;;;2.60;;
59468;SDS011;45277;52.768;18.262;2023-08-21T08:54:23;3.10;;;2.65;;
59468;SDS011;45277;52.768;18.262;2023-08-21T08:55:57;3.17;;;2.30;;
59468;SDS011;45277;52.768;18.262;2023-08-21T08:57:29;7.70;;;2.70;;
59468;SDS011;45277;52.768;18.262;2023-08-21T08:59:01;3.85;;;2.72;;
59468;SDS011;45277;52.768;18.262;2023-08-21T09:00:33;3.35;;;2.28;;
59468;SDS011;45277;52.768;18.262;2023-08-21T09:02:05;3.88;;;2.40;;
59468;SDS011;45277;52.768;18.262;2023-08-21T09:03:36;3.95;;;2.40;;
59468;SDS011;45277;52.768;18.262;2023-08-21T09:05:08;3.53;;;2.70;;